Ride Results

Windeyer- Central Ranges Endurance Ride (13-10-2018)
Ride distance: 80.0 km

Outcomes - Windeyer- Central Ranges Endurance Ride (13-10-2018)
Division No. of Entries Retired / DNE Completed Withdrawn Ineligible V/O Percentage Completed
HW 5 - 3 1 - 1 60.00%
MW 16 - 14 2 - - 87.50%
LW 9 - 9 - - - 100.00%
JN 6 - 4 - - 2 66.67%
Totals 36 - 30 3 - 3 83.33%
Results - Windeyer- Central Ranges Endurance Ride (13-10-2018)
No. Rider Horse Place Time Leg Speeds Total
Km/Hr
H/R bpm
Heavyweight
85 James Ryan Cedar Ridge Hy Regard 1 5:46:00 15.6, 12.4 13.87 36, 41, 52 (Avg:46)
78 Graeme Burchell Kiowa 2 (BC) 6:48:00 13.3, 10.5 11.76 34, 39, 40 (Avg:39)
89 Charles Gauci Charleville Cherokee Charm 3 8:15:00 12.4, 7.9 9.70 36, 46, 48 (Avg:47)
94 Ian Dreghorn Ausden Nile Prins Withdrawn L1 0:00:00 - - 36, 50 (Avg:50)
87 Marita Rifai Wee Warra Yasmina Metabolics P/R 0:00:00 - - 32, 52 (Avg:52)
Middleweight
92 Georgia Curry Mountain Breeze Just Annallusion 1 4:29:00 21.8, 15.0 17.84 41, 42, 43 (Avg:42)
93 Rodney Curry Mountain Breeze Mingha 1 (BC) 4:29:00 21.8, 15.0 17.84 29, 38, 40 (Avg:39)
75 April Newman Taeaura Shayarnah 3 5:14:00 17.7, 13.4 15.29 36, 52, 48 (Avg:50)
104 Kylie Jonkers Girilambone Comet 4 6:17:00 13.5, 11.9 12.73 32, 36, 34 (Avg:35)
102 Tom Bouzianis Conderosa Perseus 5 6:29:00 13.3, 11.4 12.34 34, 43, 47 (Avg:45)
77 Thomas Hermann Wasabi 6 6:38:00 16.4, 9.5 12.06 40, 44, 44 (Avg:44)
71 Fiona Meller Malu Vale Embers 7 6:39:00 15.1, 9.9 12.03 30, 32, 40 (Avg:36)
72 Lauren Roper Shellal Wookee 8 7:00:00 13.3, 9.9 11.43 48, 44, 47 (Avg:45)
86 Garry Weis Suncrest Salaam 9 7:05:00 13.3, 9.7 11.29 46, 42, 45 (Avg:43)
95 Brad Dillon Banfield Reign 10 7:15:00 12.9, 9.5 11.03 39, 42, 51 (Avg:46)
98 Victoria Bonham Bridle Track Bogart 11 7:30:00 13.3, 8.8 10.67 32, 41, 40 (Avg:40)
103 Chris Noonan Sharaul Lucifaa 11 7:30:00 13.3, 8.8 10.67 30, 38, 48 (Avg:43)
79 Geraldine Stuart Kolahai Jailahn 13 7:52:00 12.8, 8.4 10.17 37, 46, 48 (Avg:47)
70 Raymond Griffiths Cherox Shaadin 14 8:18:00 12.7, 7.7 9.64 34, 43, 47 (Avg:45)
100 Peter Bice Georgie Girl Withdrawn L1 0:00:00 - - 36, 44 (Avg:44)
107 Jennifer Gilbertson Webbs Creek Cattle Baron Withdrawn L1 0:00:00 - - 32, 44 (Avg:44)
Lightweight
73 Allix Jones Shellal Jive 1 (BC) 4:29:00 21.4, 15.2 17.84 42, 48, 58 (Avg:53)
81 Sue Todd Shakari Bear 2 5:46:00 15.7, 12.3 13.87 36, 46, 48 (Avg:47)
76 Susan Woodward Jon De Le Hanna 2 5:46:00 15.6, 12.4 13.87 30, 43, 48 (Avg:45)
88 Courtney Chapman Littlebanks Crystal Wings 4 6:16:00 13.9, 11.7 12.77 30, 36, 42 (Avg:39)
105 Linda Jonkers Girilambone Seedy Bub 5 6:17:00 13.3, 12.1 12.73 30, 35, 48 (Avg:41)
90 Caroline Bouvresse Box Hill Jackpot 6 6:36:00 13.3, 11.1 12.12 32, 40, 40 (Avg:40)
83 Clare Fleming Monchel Park Charmed I'm Sure 6 6:36:00 13.3, 11.1 12.12 41, 47, 60 (Avg:53)
82 Meri Lategan Malvern Copperfield 8 6:39:00 14.7, 10.1 12.03 30, 38, 46 (Avg:42)
96 Lyn Dillon Banfield Khamsin 9 7:15:00 12.9, 9.5 11.03 40, 41, 45 (Avg:43)
Junior
91 Levi Robinson Karumba Beamish 1 (BC) 5:17:00 17.0, 13.6 15.14 30, 41, 44 (Avg:42)
106 Sam Duff Box Hill Pegasus 2 6:17:00 13.7, 11.8 12.73 35, 29, 36 (Avg:32)
80 Kaitlyn Mercieca JRK Spyder 2 6:17:00 13.9, 11.7 12.73 40, 41, 45 (Avg:43)
84 Scarlet McQueen Flemingo Bomsaway 4 6:36:00 13.3, 11.1 12.12 32, 40, 48 (Avg:44)
74 Tahnaya Mercieca Shellal Kiwi Back L2 0:00:00 13.3, 9.9 - 41, 49, 56 (Avg:52)
101 Alexander Bice Silverbow Taliah Metabolics P/R 0:00:00 - - 37, 70 (Avg:70)